ADDS METAR Data INFO
IDs: Format: Raw Decoded Include TAF

Data at: 0749 UTC 17 Oct 2017

KFMN 170653Z AUTO 07008KT 10SM CLR 05/M07 A3035 RMK AO2 SLP253 T00501072 402331022
KFMN 170553Z AUTO 08004KT 10SM CLR 04/M10 A3035 RMK AO2 SLP259 T00441100 10206 20044 51003
KFMN 170453Z AUTO 02006KT 10SM CLR 06/M11 A3035 RMK AO2 SLP263 T00611106
KFMN 170353Z AUTO 02005KT 10SM CLR 07/M11 A3034 RMK AO2 SLP276 T00671106
KFMN 170253Z 27004KT 10SM CLR 14/M12 A3033 RMK AO2 SLP259 T01441117 53005
KFMN 170153Z 31004KT 10SM CLR 16/M11 A3033 RMK AO2 SLP259 T01561111
KFMN 170053Z 25005KT 10SM CLR 16/M09 A3032 RMK AO2 SLP258 T01611094
KFMN 162353Z 22005KT 10SM CLR 21/M09 A3032 RMK AO2 SLP247 T02061094 10233 20156 56010
KFMN 162253Z 26007KT 10SM CLR 22/M11 A3033 RMK AO2 SLP249 T02221106
KFMN 162153Z 00000KT 10SM CLR 22/M12 A3034 RMK AO2 SLP254 T02221122
KFMN 162053Z 20004KT 10SM CLR 21/M12 A3035 RMK AO2 SLP260 T02111117 58029
KFMN 161953Z 24004KT 10SM CLR 20/M12 A3039 RMK AO2 SLP272 T02001122
KFMN 161853Z 13004KT 10SM CLR 18/M10 A3043 RMK AO2 SLP289 T01831100
KFMN 161753Z 11004KT 10SM CLR 16/M08 A3046 RMK AO2 SLP303 T01561078 10156 21017 58012
KFMN 161653Z 11005KT 10SM CLR 11/M07 A3048 RMK AO2 SLP320 T01111067
KFMN 161553Z 12004KT 10SM CLR 03/M08 A3050 RMK AO2 SLP338 T00331078
KFMN 161453Z COR 12005KT 10SM CLR 03/08 A3050 RMK AO2 SLP333 T0033 53008 $
KFMN 161353Z 10007KT 10SM CLR 01/M08 A3048 RMK AO2 SLP324 T00061078
KFMN 161253Z 08006KT 10SM CLR M01/M08 A3047 RMK AO2 SLP317 T10111083
KFMN 161153Z 10009KT 10SM CLR 00/M09 A3047 RMK AO2 SLP306 T00001089 10022 21022 55001
KFMN 161053Z AUTO 08008KT 10SM CLR M01/M09 A3046 RMK AO2 SLP304 T10061094 $
KFMN 160953Z AUTO 06007KT 10SM CLR M02/M10 A3047 RMK AO2 SLP308 T10171100
KFMN 160853Z AUTO 09006KT 10SM CLR M01/M10 A3047 RMK AO2 SLP307 T10061100 57000
KFMN 160753Z AUTO 08009KT 10SM CLR 01/M08 A3048 RMK AO2 SLP308 T00111083
KFMN 160653Z AUTO 08007KT 10SM CLR 00/M11 A3047 RMK AO2 SLP315 T00001111 401891033
KFMN 160553Z AUTO 06006KT 10SM CLR 01/M12 A3047 RMK AO2 SLP318 T00061122 10167 20006 51009
KFMN 160453Z AUTO 02005KT 10SM CLR 02/M13 A3047 RMK AO2 SLP321 T00171128
KFMN 160353Z AUTO 05005KT 10SM CLR 03/M13 A3046 RMK AO2 SLP321 T00281128
KFMN 160253Z 00000KT 10SM CLR 06/M13 A3044 RMK AO2 SLP318 T00561128 53010
KFMN 160153Z 28004KT 10SM CLR 11/M13 A3043 RMK AO2 SLP310 T01061133
KFMN 160053Z 28005KT 10SM CLR 13/M12 A3041 RMK AO2 SLP298 T01281122
KFMN 152353Z 27006KT 10SM CLR 17/M13 A3041 RMK AO2 SLP289 T01721128 10189 20111 56007
KFMN 152253Z 27005KT 10SM CLR 18/M12 A3041 RMK AO2 SLP287 T01831122
KFMN 152153Z 24004KT 10SM CLR 18/M13 A3042 RMK AO2 SLP290 T01831128
KFMN 152053Z 00000KT 10SM CLR 18/M13 A3043 RMK AO2 SLP298 T01781133 57025
KFMN 151953Z VRB03KT 10SM CLR 16/M14 A3046 RMK AO2 SLP306 T01611144